createdAt,value
2022-10-05T00:00:54.821Z,11.30
2022-10-05T00:03:22.759Z,10.70
2022-10-05T00:05:50.322Z,8.98
2022-10-05T00:08:29.473Z,8.73
2022-10-05T00:10:58.744Z,9.30
2022-10-05T00:13:31.474Z,9.85
2022-10-05T00:16:21.329Z,8.82
2022-10-05T00:18:54.002Z,8.82
2022-10-05T00:21:27.280Z,12.43
2022-10-05T00:24:00.371Z,8.53
2022-10-05T00:26:33.582Z,12.55
2022-10-05T00:29:16.920Z,10.80
2022-10-05T00:31:46.900Z,10.23
2022-10-05T00:34:13.681Z,8.35
2022-10-05T00:36:40.864Z,9.43
2022-10-05T00:39:07.750Z,10.23
2022-10-05T00:42:12.832Z,10.93
2022-10-05T00:47:35.106Z,9.32
2022-10-05T00:50:28.297Z,10.13
2022-10-05T00:54:04.455Z,12.30
2022-10-05T01:00:06.876Z,8.68
2022-10-05T01:03:08.197Z,7.22
2022-10-05T01:06:11.940Z,10.18
2022-10-05T01:09:37.434Z,8.15
2022-10-05T01:12:52.052Z,11.23
2022-10-05T01:15:54.436Z,10.13
2022-10-05T01:18:39.180Z,8.02
2022-10-05T01:21:35.004Z,15.63
2022-10-05T01:24:49.871Z,11.90
2022-10-05T01:28:04.317Z,8.65
2022-10-05T01:31:28.942Z,7.87
2022-10-05T01:34:51.001Z,9.90
2022-10-05T01:37:34.866Z,8.20
2022-10-05T01:40:15.242Z,11.82
2022-10-05T01:43:40.583Z,13.02
2022-10-05T01:46:33.804Z,11.43
2022-10-05T01:49:47.151Z,11.63
2022-10-05T01:53:00.550Z,9.95
2022-10-05T01:55:56.712Z,11.40
2022-10-05T01:59:00.512Z,10.98
2022-10-05T02:01:58.469Z,10.38
2022-10-05T02:05:02.989Z,9.23
2022-10-05T02:07:48.029Z,12.13
2022-10-05T02:10:31.115Z,9.07
2022-10-05T02:13:12.459Z,10.60
2022-10-05T02:15:53.946Z,11.10
2022-10-05T02:18:32.668Z,10.95
2022-10-05T02:21:04.080Z,9.07
2022-10-05T02:23:39.066Z,10.60
2022-10-05T02:26:13.639Z,10.65
2022-10-05T02:29:07.469Z,10.07
2022-10-05T02:32:03.902Z,10.70
2022-10-05T02:34:41.324Z,14.00
2022-10-05T02:38:01.058Z,12.57
2022-10-05T02:41:02.829Z,17.40
2022-10-05T02:44:24.111Z,10.07
2022-10-05T02:47:15.282Z,9.80
2022-10-05T02:50:27.318Z,12.82
2022-10-05T02:53:19.185Z,10.68
2022-10-05T02:56:11.194Z,10.18
2022-10-05T02:59:31.882Z,8.60
2022-10-05T03:02:25.105Z,12.13
2022-10-05T03:05:38.226Z,11.48
2022-10-05T03:08:37.039Z,9.45
2022-10-05T03:11:23.561Z,10.68
2022-10-05T03:14:56.682Z,11.05
2022-10-05T03:17:37.122Z,11.38
2022-10-05T03:20:37.916Z,11.68
2022-10-05T03:23:40.235Z,9.55
2022-10-05T03:26:39.001Z,9.15
2022-10-05T03:29:44.568Z,11.60
2022-10-05T03:32:50.246Z,9.38
2022-10-05T03:36:16.810Z,12.82
2022-10-05T03:38:56.643Z,12.57
2022-10-05T03:41:51.510Z,10.10
2022-10-05T03:51:03.835Z,9.55
2022-10-05T03:53:44.864Z,9.73
2022-10-05T03:56:55.786Z,14.40
2022-10-05T03:59:42.331Z,9.52
2022-10-05T04:02:40.266Z,9.57
2022-10-05T04:05:10.127Z,12.23
2022-10-05T04:08:09.724Z,11.10
2022-10-05T04:11:12.306Z,9.90
2022-10-05T04:14:11.109Z,11.23
2022-10-05T04:17:06.873Z,11.10
2022-10-05T04:19:56.436Z,10.85
2022-10-05T04:22:35.126Z,11.65
2022-10-05T04:25:34.635Z,8.68
2022-10-05T04:28:35.464Z,12.52
2022-10-05T04:31:16.759Z,12.00
2022-10-05T04:34:01.219Z,13.07
2022-10-05T04:36:46.277Z,10.57
2022-10-05T04:39:43.341Z,13.18
2022-10-05T04:42:44.788Z,10.90
2022-10-05T04:45:58.675Z,9.35
2022-10-05T04:49:06.102Z,11.18
2022-10-05T04:52:19.869Z,12.63
2022-10-05T04:55:13.374Z,10.20
2022-10-05T04:58:02.985Z,12.25
2022-10-05T05:01:14.745Z,12.18
2022-10-05T05:04:29.057Z,10.98
2022-10-05T05:07:08.075Z,11.80
2022-10-05T05:10:23.947Z,10.50
2022-10-05T05:13:43.974Z,9.63
2022-10-05T05:16:38.579Z,9.85
2022-10-05T05:20:01.907Z,12.27
2022-10-05T05:22:48.603Z,11.13
2022-10-05T05:25:57.607Z,11.10
2022-10-05T05:29:13.416Z,11.70
2022-10-05T05:32:36.471Z,11.50
2022-10-05T05:35:25.184Z,13.23
2022-10-05T05:39:08.405Z,11.60
2022-10-05T05:42:23.711Z,9.48
2022-10-05T05:44:56.772Z,9.88
2022-10-05T05:47:43.054Z,8.63
2022-10-05T05:51:05.180Z,9.45
2022-10-05T05:53:50.172Z,9.40
2022-10-05T05:56:40.142Z,10.48
2022-10-05T05:59:27.547Z,9.98
2022-10-05T06:02:14.892Z,9.50
2022-10-05T06:05:02.217Z,9.20
2022-10-05T06:07:32.588Z,11.68
2022-10-05T06:10:19.870Z,10.35
2022-10-05T06:12:52.881Z,12.43
2022-10-05T06:15:38.719Z,13.35
2022-10-05T06:18:27.052Z,11.23
2022-10-05T06:21:08.752Z,10.82
2022-10-05T06:24:01.378Z,9.57
2022-10-05T06:27:16.346Z,11.60
2022-10-05T06:30:18.804Z,13.43
2022-10-05T06:33:35.824Z,12.60
2022-10-05T06:36:50.814Z,10.43
2022-10-05T06:39:56.387Z,11.43
2022-10-05T06:43:16.008Z,9.60
2022-10-05T06:46:12.389Z,10.55
2022-10-05T06:49:26.583Z,12.40
2022-10-05T06:52:16.507Z,11.70
2022-10-05T06:55:48.655Z,9.75
2022-10-05T06:59:18.588Z,11.90
2022-10-05T07:02:10.705Z,13.40
2022-10-05T07:05:20.851Z,10.18
2022-10-05T07:08:37.337Z,9.88
2022-10-05T07:12:11.843Z,8.45
2022-10-05T07:15:05.924Z,10.25
2022-10-05T07:18:12.591Z,9.68
2022-10-05T07:21:50.071Z,8.73
2022-10-05T07:24:42.907Z,7.30
2022-10-05T07:27:46.209Z,8.32
2022-10-05T07:30:18.258Z,7.68
2022-10-05T07:33:21.407Z,7.65
2022-10-05T07:37:00.777Z,8.10
2022-10-05T07:40:00.210Z,8.75
2022-10-05T07:43:00.442Z,9.65
2022-10-05T07:45:52.369Z,10.30
2022-10-05T07:49:24.157Z,8.93
2022-10-05T07:52:57.823Z,8.88
2022-10-05T07:55:45.193Z,10.50
2022-10-05T07:58:44.525Z,9.40
2022-10-05T08:01:29.771Z,10.48
2022-10-05T08:04:41.752Z,11.27
2022-10-05T08:07:19.298Z,10.10
2022-10-05T08:10:19.519Z,10.23
2022-10-05T08:13:28.462Z,10.07
2022-10-05T08:16:06.102Z,11.98
2022-10-05T08:19:07.019Z,10.35
2022-10-05T08:21:56.294Z,9.90
2022-10-05T08:24:25.784Z,13.32
2022-10-05T08:27:24.166Z,10.23
2022-10-05T08:30:03.457Z,10.60
2022-10-05T08:32:48.332Z,11.63
2022-10-05T08:35:44.719Z,11.25
2022-10-05T08:38:35.379Z,11.07
2022-10-05T08:41:59.510Z,11.68
2022-10-05T08:45:31.169Z,14.88
2022-10-05T08:48:59.543Z,9.60
2022-10-05T08:51:46.996Z,11.25
2022-10-05T08:54:38.051Z,12.57
2022-10-05T08:57:47.326Z,9.95
2022-10-05T09:00:27.791Z,11.73
2022-10-05T09:03:34.207Z,12.43
2022-10-05T09:06:47.958Z,11.05
2022-10-05T09:09:52.712Z,14.23
2022-10-05T09:12:59.838Z,10.52
2022-10-05T09:16:40.915Z,9.20
2022-10-05T09:19:53.132Z,11.48
2022-10-05T09:23:02.413Z,13.48
2022-10-05T09:25:59.665Z,8.75
2022-10-05T09:28:56.256Z,10.63
2022-10-05T09:32:35.294Z,12.18
2022-10-05T09:35:42.497Z,11.10
2022-10-05T09:38:21.389Z,13.20
2022-10-05T09:41:56.916Z,9.70
2022-10-05T09:45:49.107Z,9.77
2022-10-05T09:49:00.186Z,7.85
2022-10-05T09:52:38.564Z,11.10
2022-10-05T09:55:51.416Z,9.10
2022-10-05T09:59:18.155Z,10.65
2022-10-05T10:02:15.305Z,11.38
2022-10-05T10:05:35.835Z,9.73
2022-10-05T10:09:18.446Z,8.45
2022-10-05T10:12:51.536Z,8.23
2022-10-05T10:16:10.280Z,10.23
2022-10-05T10:19:08.943Z,10.90
2022-10-05T10:23:03.996Z,11.38
2022-10-05T10:26:15.993Z,10.60
2022-10-05T10:29:15.946Z,8.80
2022-10-05T10:32:14.346Z,9.82
2022-10-05T10:35:22.560Z,8.85
2022-10-05T10:38:31.696Z,8.77
2022-10-05T10:42:15.837Z,9.52
2022-10-05T10:45:43.449Z,8.63
2022-10-05T10:49:03.374Z,12.05
2022-10-05T10:52:30.473Z,8.63
2022-10-05T10:55:11.058Z,9.02
2022-10-05T10:58:50.665Z,7.75
2022-10-05T11:01:33.084Z,10.80
2022-10-05T11:05:09.698Z,8.43
2022-10-05T11:08:02.122Z,8.68
2022-10-05T11:11:33.066Z,8.20
2022-10-05T11:14:53.232Z,7.53
2022-10-05T11:18:49.840Z,8.30
2022-10-05T11:21:50.306Z,8.20
2022-10-05T11:25:00.561Z,7.80
2022-10-05T11:28:37.444Z,9.27
2022-10-05T11:31:50.511Z,7.13
2022-10-05T11:35:00.708Z,7.28
2022-10-05T11:38:06.434Z,7.20
2022-10-05T11:40:58.679Z,6.40
2022-10-05T11:44:06.310Z,6.32
2022-10-05T11:47:40.093Z,5.97
2022-10-05T11:51:19.328Z,7.53
2022-10-05T11:58:18.189Z,7.38
2022-10-05T12:01:12.373Z,6.38
2022-10-05T12:04:20.859Z,7.60
2022-10-05T12:07:26.625Z,7.43
2022-10-05T12:10:42.536Z,7.25
2022-10-05T12:13:39.095Z,9.60
2022-10-05T12:16:35.786Z,7.78
2022-10-05T12:19:41.283Z,8.65
2022-10-05T12:23:27.808Z,9.00
2022-10-05T12:26:04.422Z,9.18
2022-10-05T12:29:05.988Z,8.52
2022-10-05T12:32:09.262Z,8.98
2022-10-05T12:35:29.695Z,9.20
2022-10-05T12:38:30.543Z,10.20
2022-10-05T12:41:32.719Z,10.05
2022-10-05T12:44:44.196Z,9.88
2022-10-05T12:48:07.885Z,10.85
2022-10-05T12:50:48.702Z,9.57
2022-10-05T12:53:53.864Z,9.10
2022-10-05T12:56:57.201Z,9.70
2022-10-05T12:59:44.813Z,9.63
2022-10-05T13:02:46.693Z,9.48
2022-10-05T13:05:38.922Z,10.45
2022-10-05T13:08:54.342Z,10.35
2022-10-05T13:15:06.756Z,10.45
2022-10-05T13:18:43.710Z,9.45
2022-10-05T13:21:55.321Z,9.13
2022-10-05T13:24:34.639Z,10.07
2022-10-05T13:27:23.284Z,9.15
2022-10-05T13:30:22.894Z,9.48
2022-10-05T13:33:43.629Z,9.07
2022-10-05T13:36:55.039Z,8.90
2022-10-05T13:39:45.695Z,9.35
2022-10-05T13:43:06.660Z,8.80
2022-10-05T13:45:57.118Z,11.80
2022-10-05T13:48:57.466Z,9.65
2022-10-05T13:51:53.612Z,9.18
2022-10-05T13:54:38.134Z,9.63
2022-10-05T14:00:15.320Z,8.77
2022-10-05T14:02:49.994Z,9.13
2022-10-05T14:05:31.659Z,8.43
2022-10-05T14:08:17.646Z,8.43
2022-10-05T14:10:48.197Z,8.48
2022-10-05T14:13:44.786Z,7.80
2022-10-05T14:16:26.024Z,7.97
2022-10-05T14:19:34.188Z,8.93
2022-10-05T14:22:25.153Z,7.25
2022-10-05T14:25:10.673Z,8.07
2022-10-05T14:28:14.160Z,7.63
2022-10-05T14:31:13.293Z,7.55
2022-10-05T14:33:56.134Z,7.80
2022-10-05T14:36:44.080Z,8.82
2022-10-05T14:39:21.621Z,6.93
2022-10-05T14:41:51.036Z,7.03
2022-10-05T14:44:40.903Z,9.60
2022-10-05T14:47:34.435Z,6.32
2022-10-05T14:50:26.435Z,6.05
2022-10-05T14:53:11.721Z,6.72
2022-10-05T14:56:27.860Z,7.80
2022-10-05T15:00:18.955Z,6.93
2022-10-05T15:03:08.037Z,8.00
2022-10-05T15:06:03.413Z,8.90
2022-10-05T15:09:21.176Z,5.68
2022-10-05T15:11:55.909Z,6.05
2022-10-05T15:14:36.246Z,6.60
2022-10-05T15:17:31.075Z,6.38
2022-10-05T15:23:11.665Z,9.05
2022-10-05T15:26:25.378Z,7.00
2022-10-05T15:29:36.442Z,6.90
2022-10-05T15:32:22.298Z,6.50
2022-10-05T15:35:26.845Z,5.47
2022-10-05T15:38:27.459Z,6.78
2022-10-05T15:41:25.235Z,6.47
2022-10-05T15:44:34.370Z,6.03
2022-10-05T15:47:19.548Z,6.70
2022-10-05T15:50:10.216Z,5.53
2022-10-05T15:52:55.570Z,5.93
2022-10-05T15:55:56.776Z,5.25
2022-10-05T15:59:39.458Z,6.60
2022-10-05T16:02:25.263Z,6.78
2022-10-05T16:05:03.837Z,8.52
2022-10-05T16:08:38.737Z,6.13
2022-10-05T16:11:30.581Z,6.88
2022-10-05T16:14:41.311Z,6.22
2022-10-05T16:17:48.781Z,6.25
2022-10-05T16:21:23.314Z,6.22
2022-10-05T16:24:22.333Z,10.50
2022-10-05T16:27:07.695Z,5.90
2022-10-05T16:30:08.882Z,12.07
2022-10-05T16:33:13.578Z,6.40
2022-10-05T16:36:03.497Z,6.68
2022-10-05T16:38:53.529Z,5.97
2022-10-05T16:41:46.709Z,5.88
2022-10-05T16:44:48.923Z,6.07
2022-10-05T16:48:34.564Z,6.63
2022-10-05T16:52:10.286Z,6.63
2022-10-05T16:55:14.075Z,7.57
2022-10-05T16:57:57.148Z,7.28
2022-10-05T17:00:38.075Z,6.65
2022-10-05T17:03:30.064Z,7.55
2022-10-05T17:06:26.165Z,6.30
2022-10-05T17:09:08.191Z,6.28
2022-10-05T17:12:13.591Z,6.65
2022-10-05T17:15:33.105Z,7.00
2022-10-05T17:19:05.567Z,6.35
2022-10-05T17:22:04.389Z,7.15
2022-10-05T17:25:09.305Z,6.53
2022-10-05T17:28:18.609Z,6.22
2022-10-05T17:31:17.657Z,7.38
2022-10-05T17:34:00.024Z,9.68
2022-10-05T17:37:15.013Z,7.18
2022-10-05T17:39:54.355Z,8.23
2022-10-05T17:42:34.350Z,7.63
2022-10-05T17:45:21.154Z,8.68
2022-10-05T17:48:08.781Z,10.35
2022-10-05T17:51:07.881Z,17.55
2022-10-05T17:54:03.418Z,10.73
2022-10-05T17:56:47.961Z,9.30
2022-10-05T17:59:49.972Z,17.10
2022-10-05T18:02:24.286Z,11.25
2022-10-05T18:05:16.403Z,9.02
2022-10-05T18:07:48.537Z,8.82
2022-10-05T18:10:25.804Z,8.25
2022-10-05T18:13:01.992Z,7.45
2022-10-05T18:15:29.051Z,7.95
2022-10-05T18:18:46.181Z,7.72
2022-10-05T18:21:28.788Z,7.78
2022-10-05T18:23:59.111Z,6.88
2022-10-05T18:27:33.413Z,7.47
2022-10-05T18:30:28.125Z,6.63
2022-10-05T18:33:29.928Z,6.63
2022-10-05T18:53:52.673Z,6.28
2022-10-05T19:32:45.888Z,6.57
2022-10-05T19:36:34.349Z,5.88
2022-10-05T20:00:04.094Z,4.90
2022-10-05T20:07:54.808Z,4.47
2022-10-05T20:33:34.541Z,4.88
2022-10-05T20:36:03.618Z,5.38
2022-10-05T20:38:38.698Z,5.40
2022-10-05T20:41:07.735Z,5.25
2022-10-05T20:49:02.971Z,5.20
2022-10-05T21:02:20.749Z,4.97
2022-10-05T21:07:28.553Z,4.75
2022-10-05T21:10:03.743Z,4.13
2022-10-05T21:15:16.131Z,4.90
2022-10-05T21:25:49.161Z,4.57
2022-10-05T21:44:28.250Z,4.82
2022-10-05T21:52:26.785Z,6.10
2022-10-05T21:54:55.389Z,5.35
2022-10-05T22:02:50.145Z,5.45
2022-10-05T22:08:01.942Z,4.65
2022-10-05T22:13:13.475Z,4.57
2022-10-05T22:26:35.824Z,4.13
2022-10-05T22:31:49.159Z,6.70
2022-10-05T22:34:18.452Z,6.32
2022-10-05T22:36:45.968Z,4.90
2022-10-05T22:44:35.271Z,6.60
2022-10-05T23:08:50.131Z,4.10
2022-10-05T23:14:12.798Z,3.20
2022-10-05T23:22:11.749Z,3.75
2022-10-05T23:32:45.055Z,5.40
2022-10-05T23:35:18.133Z,4.85
2022-10-05T23:37:45.514Z,4.55
2022-10-05T23:40:14.348Z,6.18
2022-10-05T23:42:42.225Z,5.20
2022-10-05T23:45:18.011Z,5.35
2022-10-05T23:47:46.280Z,5.18
2022-10-05T23:50:13.451Z,5.30
2022-10-05T23:52:40.223Z,5.03
2022-10-05T23:55:07.776Z,3.95
2022-10-05T23:57:34.449Z,4.60
